Time;durP1;ratioP1;P1;durP2;ratioP2;P2;SDS_P1;SDS_P2;PMS_P1;PMS_P2;Temp;Humidity;BMP_temperature;BMP_pressure;BME280_temperature;BME280_humidity;BME280_pressure;Samples;Min_cycle;Max_cycle;Signal;HPM_P1;HPM_P2
2020/12/27 00:02:20;;;;;;;2.65;1.30;;;7.50;82.90;;;;;;5016400;28;20041;-82
2020/12/27 00:04:48;;;;;;;2.88;1.40;;;7.50;82.60;;;;;;5033237;28;20174;-81
2020/12/27 00:07:16;;;;;;;3.63;1.60;;;7.50;82.40;;;;;;5013170;28;20045;-81
2020/12/27 00:09:44;;;;;;;3.55;1.50;;;7.50;82.10;;;;;;5022085;28;20195;-82
2020/12/27 00:12:12;;;;;;;3.03;1.40;;;7.50;81.70;;;;;;5023285;28;20064;-82
2020/12/27 00:14:40;;;;;;;1.40;1.00;;;7.40;81.60;;;;;;5016668;28;20055;-82
2020/12/27 00:17:09;;;;;;;2.17;1.38;;;7.40;81.40;;;;;;5018284;28;20048;-81
2020/12/27 00:19:37;;;;;;;3.33;0.80;;;7.30;81.40;;;;;;5019258;28;20052;-82
2020/12/27 00:22:05;;;;;;;2.45;0.95;;;7.20;81.30;;;;;;5014645;28;20063;-82
2020/12/27 00:24:32;;;;;;;3.25;0.80;;;7.20;81.10;;;;;;5014477;28;20103;-82
2020/12/27 00:27:00;;;;;;;2.08;0.68;;;7.20;80.70;;;;;;5017567;28;20397;-81
2020/12/27 00:29:27;;;;;;;3.35;0.70;;;7.30;80.40;;;;;;5037030;28;20100;-82
2020/12/27 00:31:56;;;;;;;2.83;0.68;;;7.20;80.10;;;;;;4997580;28;20101;-81
2020/12/27 00:34:24;;;;;;;2.17;0.60;;;7.30;79.90;;;;;;5019928;28;20060;-82
2020/12/27 00:36:57;;;;;;;2.28;0.68;;;7.30;79.60;;;;;;5001511;28;20046;-82
2020/12/27 00:39:25;;;;;;;3.38;1.00;;;7.30;79.70;;;;;;5014389;28;20619;-80
2020/12/27 00:41:58;;;;;;;0.98;0.50;;;7.30;80.00;;;;;;5020067;28;20038;-81
2020/12/27 00:44:25;;;;;;;1.77;0.70;;;7.30;80.30;;;;;;5016297;28;20054;-82
2020/12/27 00:46:52;;;;;;;1.15;0.70;;;7.30;80.60;;;;;;5018066;28;20620;-81
2020/12/27 00:49:21;;;;;;;2.10;0.70;;;7.20;80.90;;;;;;5006268;28;20042;-81
2020/12/27 00:51:50;;;;;;;1.65;0.80;;;7.20;80.90;;;;;;5021003;28;20053;-82
2020/12/27 00:54:23;;;;;;;2.20;0.70;;;7.20;80.80;;;;;;5047875;28;20099;-81
2020/12/27 00:56:51;;;;;;;3.58;0.55;;;7.20;80.10;;;;;;5019230;28;20206;-81
2020/12/27 00:59:21;;;;;;;2.10;0.75;;;7.20;79.60;;;;;;5022604;28;20420;-82
2020/12/27 01:01:55;;;;;;;2.53;0.65;;;7.20;79.40;;;;;;5014669;28;20042;-82
2020/12/27 01:04:32;;;;;;;2.08;1.02;;;7.20;79.50;;;;;;5021627;28;20855;-82
2020/12/27 01:07:00;;;;;;;1.65;0.82;;;7.20;79.80;;;;;;5016024;28;20058;-81
2020/12/27 01:09:27;;;;;;;2.15;0.70;;;7.20;79.80;;;;;;5035517;28;20136;-82
2020/12/27 01:11:56;;;;;;;3.42;0.50;;;7.20;79.70;;;;;;5019045;28;20041;-81
2020/12/27 01:14:24;;;;;;;1.60;0.57;;;7.30;79.60;;;;;;5011971;28;20037;-81
2020/12/27 01:16:57;;;;;;;1.55;0.60;;;7.20;78.80;;;;;;5039737;28;20037;-81
2020/12/27 01:19:29;;;;;;;1.67;0.52;;;7.10;78.70;;;;;;5003010;28;20140;-81
2020/12/27 01:21:57;;;;;;;2.38;0.70;;;7.10;78.90;;;;;;5021660;28;20041;-81
2020/12/27 01:24:43;;;;;;;0.77;0.52;;;7.10;79.00;;;;;;5011353;28;20076;-81
2020/12/27 01:27:12;;;;;;;3.72;0.77;;;7.10;79.50;;;;;;5020476;28;20045;-81
2020/12/27 01:29:39;;;;;;;1.50;0.70;;;7.10;79.90;;;;;;5005424;28;20041;-81
2020/12/27 01:32:19;;;;;;;2.20;0.70;;;7.10;80.00;;;;;;5018598;28;20147;-81
2020/12/27 01:34:51;;;;;;;1.40;0.60;;;7.10;80.30;;;;;;5033985;28;20087;-81
2020/12/27 01:37:21;;;;;;;1.75;0.63;;;7.00;80.80;;;;;;5020440;28;20107;-82
2020/12/27 01:39:52;;;;;;;1.33;0.73;;;7.00;80.90;;;;;;5019165;28;20072;-82
2020/12/27 01:42:21;;;;;;;3.22;0.60;;;7.00;80.80;;;;;;5029828;28;20503;-84
2020/12/27 01:44:48;;;;;;;1.08;0.60;;;7.00;80.70;;;;;;5040780;28;20029;-83
2020/12/27 01:47:36;;;;;;;2.22;0.75;;;6.90;81.40;;;;;;5031825;28;20060;-84
2020/12/27 01:50:04;;;;;;;1.23;0.55;;;7.00;81.60;;;;;;5022122;28;20063;-84
2020/12/27 01:52:32;;;;;;;5.53;1.50;;;7.00;82.00;;;;;;5034249;28;20506;-84
2020/12/27 01:55:07;;;;;;;2.50;1.00;;;7.00;82.00;;;;;;5016431;28;20136;-83
2020/12/27 01:58:11;;;;;;;2.88;0.93;;;7.00;82.10;;;;;;5028912;28;20050;-83
2020/12/27 02:00:38;;;;;;;1.77;0.68;;;6.80;80.90;;;;;;5022151;28;20061;-83
2020/12/27 02:03:19;;;;;;;0.73;0.50;;;6.80;80.40;;;;;;5020393;28;20064;-83
2020/12/27 02:05:51;;;;;;;1.08;0.60;;;6.80;80.00;;;;;;5022081;28;20080;-83
2020/12/27 02:08:20;;;;;;;2.45;0.73;;;6.80;80.30;;;;;;5016932;28;20510;-83
2020/12/27 02:11:04;;;;;;;1.95;0.68;;;6.90;80.50;;;;;;5015963;28;20052;-83
2020/12/27 02:13:32;;;;;;;1.25;0.50;;;6.90;80.00;;;;;;5013262;28;20041;-84
2020/12/27 02:16:00;;;;;;;2.28;0.60;;;7.00;80.20;;;;;;5013797;28;20049;-83
2020/12/27 02:18:48;;;;;;;1.38;0.60;;;6.90;81.00;;;;;;5028156;28;20335;-83
2020/12/27 02:21:16;;;;;;;2.20;0.68;;;6.90;81.80;;;;;;5022096;28;20045;-83
2020/12/27 02:23:44;;;;;;;1.40;0.70;;;6.90;82.10;;;;;;5033746;28;20068;-83
2020/12/27 02:26:19;;;;;;;1.23;0.70;;;6.90;82.60;;;;;;5021299;28;20041;-83
2020/12/27 02:28:54;;;;;;;0.90;0.55;;;6.80;82.70;;;;;;5019043;28;20107;-83
2020/12/27 02:31:25;;;;;;;2.42;0.65;;;6.80;82.80;;;;;;5019018;28;20103;-83
2020/12/27 02:33:58;;;;;;;2.13;0.80;;;6.90;83.10;;;;;;4988506;28;20050;-83
2020/12/27 02:36:28;;;;;;;2.28;0.50;;;6.90;83.50;;;;;;5021799;28;20050;-83
2020/12/27 02:38:57;;;;;;;1.23;0.60;;;7.00;82.90;;;;;;4992517;28;20042;-83
2020/12/27 02:41:35;;;;;;;2.47;0.60;;;6.90;82.90;;;;;;4980564;28;20133;-83
2020/12/27 02:44:09;;;;;;;1.20;0.60;;;6.90;82.60;;;;;;4986562;28;20053;-83
2020/12/27 02:46:52;;;;;;;2.90;0.60;;;7.00;83.10;;;;;;4998294;28;20121;-83
2020/12/27 02:49:29;;;;;;;2.17;0.70;;;7.00;82.90;;;;;;4995836;28;20129;-83
2020/12/27 02:52:03;;;;;;;1.63;0.50;;;7.00;82.70;;;;;;5000697;28;20140;-83
2020/12/27 02:54:31;;;;;;;1.55;0.40;;;6.90;81.70;;;;;;4998447;28;20298;-83
2020/12/27 02:57:00;;;;;;;1.38;0.50;;;6.90;82.40;;;;;;4987501;28;20117;-82
2020/12/27 02:59:28;;;;;;;1.15;0.63;;;6.80;81.80;;;;;;4985246;28;20504;-83
2020/12/27 03:02:01;;;;;;;1.85;0.60;;;6.70;82.40;;;;;;4980710;28;20046;-83
2020/12/27 03:04:36;;;;;;;1.25;0.52;;;6.70;82.50;;;;;;5019754;28;20100;-83
2020/12/27 03:07:10;;;;;;;1.35;0.60;;;6.60;82.60;;;;;;4988835;28;20046;-83
2020/12/27 03:09:49;;;;;;;2.75;0.50;;;6.60;82.80;;;;;;4993401;28;20499;-83
2020/12/27 03:12:31;;;;;;;1.55;0.65;;;6.40;82.70;;;;;;4997739;28;20057;-83
2020/12/27 03:14:59;;;;;;;3.33;0.90;;;6.40;83.10;;;;;;5008566;28;20049;-82
2020/12/27 03:17:37;;;;;;;2.05;0.70;;;6.40;84.00;;;;;;4969832;28;20076;-83
2020/12/27 03:20:16;;;;;;;1.57;0.80;;;6.30;83.60;;;;;;4977857;28;20046;-83
2020/12/27 03:22:59;;;;;;;2.60;0.73;;;6.30;84.10;;;;;;4989268;28;20288;-82
2020/12/27 03:25:40;;;;;;;1.77;0.50;;;6.40;84.40;;;;;;4985024;28;20508;-82
2020/12/27 03:28:08;;;;;;;1.40;0.70;;;6.40;83.80;;;;;;4988647;28;20034;-83
2020/12/27 03:30:36;;;;;;;2.20;0.75;;;6.40;83.80;;;;;;4969708;28;20535;-83
2020/12/27 03:33:09;;;;;;;3.80;0.75;;;6.40;83.60;;;;;;5015542;28;20522;-82
2020/12/27 03:35:50;;;;;;;1.30;0.55;;;6.10;83.10;;;;;;5023206;28;20063;-83
2020/12/27 03:38:17;;;;;;;0.88;0.68;;;5.80;84.30;;;;;;5006358;28;20115;-83
2020/12/27 03:41:04;;;;;;;0.98;0.57;;;5.90;85.20;;;;;;5008113;28;20127;-83
2020/12/27 03:43:46;;;;;;;1.63;0.63;;;6.00;85.60;;;;;;5007648;28;20377;-82
2020/12/27 03:46:19;;;;;;;0.90;0.70;;;5.90;86.20;;;;;;5005036;28;20495;-80
2020/12/27 03:48:53;;;;;;;4.15;1.10;;;6.10;86.80;;;;;;5019911;28;20499;-80
2020/12/27 03:51:34;;;;;;;2.95;0.90;;;6.10;86.10;;;;;;5007930;28;20088;-80
2020/12/27 03:54:02;;;;;;;1.95;0.60;;;6.00;86.70;;;;;;5022628;28;20049;-80
2020/12/27 03:56:49;;;;;;;2.05;0.75;;;5.90;87.00;;;;;;5008358;28;20411;-80
2020/12/27 03:59:37;;;;;;;1.52;1.00;;;5.90;87.90;;;;;;5034504;28;20052;-80
2020/12/27 04:02:24;;;;;;;2.80;0.93;;;6.00;87.40;;;;;;5006969;28;20046;-80
2020/12/27 04:04:51;;;;;;;1.52;0.75;;;6.10;87.80;;;;;;5003216;28;20490;-80
2020/12/27 04:07:18;;;;;;;1.77;1.00;;;6.00;87.50;;;;;;5019342;28;20034;-80
2020/12/27 04:09:48;;;;;;;4.10;1.00;;;6.10;88.20;;;;;;5022630;28;20053;-79
2020/12/27 04:12:16;;;;;;;1.48;0.90;;;6.10;87.80;;;;;;4988745;28;20436;-80
2020/12/27 04:14:47;;;;;;;2.83;0.82;;;5.90;88.50;;;;;;5002253;28;20284;-80
2020/12/27 04:17:22;;;;;;;2.10;0.70;;;6.00;88.90;;;;;;5020175;28;20045;-80
2020/12/27 04:19:49;;;;;;;3.33;0.98;;;5.90;89.10;;;;;;5022610;28;20065;-80
2020/12/27 04:22:17;;;;;;;1.65;0.70;;;6.00;88.50;;;;;;5019101;28;20263;-80
2020/12/27 04:24:51;;;;;;;2.47;0.90;;;5.90;89.00;;;;;;5022407;28;20038;-80
2020/12/27 04:27:21;;;;;;;1.63;0.80;;;5.80;89.20;;;;;;5004044;28;20038;-80
2020/12/27 04:29:50;;;;;;;2.53;0.90;;;5.80;89.40;;;;;;5000381;28;20073;-81
2020/12/27 04:32:29;;;;;;;3.53;1.10;;;5.80;89.60;;;;;;5017499;28;20049;-81
2020/12/27 04:35:03;;;;;;;1.73;0.80;;;6.00;89.30;;;;;;4988339;28;21023;-83
2020/12/27 04:37:34;;;;;;;2.00;0.93;;;6.10;89.20;;;;;;5005716;28;20046;-80
2020/12/27 04:40:12;;;;;;;1.77;0.90;;;6.10;88.90;;;;;;5005163;28;20510;-80
2020/12/27 04:42:43;;;;;;;1.58;0.88;;;6.20;89.10;;;;;;5001238;28;20052;-80
2020/12/27 04:45:23;;;;;;;2.85;1.30;;;6.10;88.80;;;;;;4986990;28;20136;-80
2020/12/27 04:48:01;;;;;;;2.08;0.90;;;6.00;89.20;;;;;;5002423;28;20033;-80
2020/12/27 04:50:48;;;;;;;1.02;0.70;;;5.90;90.00;;;;;;5001394;28;20149;-81
2020/12/27 04:53:16;;;;;;;1.98;1.65;;;6.00;89.60;;;;;;4969499;28;20322;-81
2020/12/27 04:55:44;;;;;;;2.38;0.95;;;6.20;89.70;;;;;;4983444;28;21005;-82
2020/12/27 04:58:18;;;;;;;3.42;0.85;;;6.00;89.90;;;;;;4985802;28;20121;-81
2020/12/27 05:00:56;;;;;;;1.67;1.27;;;6.00;90.20;;;;;;4987006;28;20049;-81
2020/12/27 05:03:36;;;;;;;2.90;0.90;;;6.00;90.10;;;;;;4983049;28;20715;-81
2020/12/27 05:06:12;;;;;;;3.05;1.25;;;6.00;90.10;;;;;;4984375;28;20053;-81
2020/12/27 05:08:39;;;;;;;3.83;1.35;;;5.90;90.30;;;;;;4983011;28;20041;-81
2020/12/27 05:11:11;;;;;;;1.98;1.05;;;5.90;90.40;;;;;;4966271;28;20077;-81
2020/12/27 05:13:39;;;;;;;4.18;1.23;;;6.00;90.60;;;;;;5002781;28;20041;-81
2020/12/27 05:16:25;;;;;;;2.35;1.13;;;5.80;90.70;;;;;;4977969;28;20050;-81
2020/12/27 05:18:53;;;;;;;2.08;0.90;;;5.70;91.20;;;;;;4983904;28;20029;-81
2020/12/27 05:21:26;;;;;;;2.70;0.95;;;5.80;91.20;;;;;;4981336;28;20049;-81
2020/12/27 05:23:56;;;;;;;1.73;0.85;;;5.70;91.20;;;;;;4986839;28;20038;-81
2020/12/27 05:26:36;;;;;;;2.78;1.13;;;5.70;90.70;;;;;;4984209;28;20459;-81
2020/12/27 05:29:32;;;;;;;2.08;0.80;;;5.70;91.10;;;;;;4975235;28;20511;-81
2020/12/27 05:32:07;;;;;;;2.00;0.85;;;5.50;91.30;;;;;;4996604;28;20085;-81
2020/12/27 05:34:54;;;;;;;2.03;0.90;;;5.60;90.80;;;;;;5007081;28;20068;-81
2020/12/27 05:37:30;;;;;;;;;;;5.70;91.20;;;;;;5019681;28;20077;-81
2020/12/27 05:40:07;;;;;;;1.80;0.90;;;5.70;90.70;;;;;;5017289;28;19932;-81
2020/12/27 05:42:54;;;;;;;3.45;1.55;;;5.60;90.50;;;;;;4992706;28;20057;-81
2020/12/27 05:45:22;;;;;;;3.72;0.90;;;5.60;91.20;;;;;;5018723;28;20130;-81
2020/12/27 05:47:59;;;;;;;4.18;0.90;;;5.70;91.40;;;;;;5002667;28;20049;-81
2020/12/27 05:50:30;;;;;;;2.03;0.65;;;5.70;90.80;;;;;;5014379;28;20397;-81
2020/12/27 05:53:00;;;;;;;2.53;1.15;;;5.80;91.00;;;;;;5016205;28;20065;-81
2020/12/27 05:55:43;;;;;;;2.28;0.80;;;5.80;91.00;;;;;;5019749;28;20045;-81
2020/12/27 05:58:15;;;;;;;1.73;0.75;;;5.80;90.90;;;;;;5021445;28;20049;-81
2020/12/27 06:00:44;;;;;;;3.03;1.55;;;5.80;91.00;;;;;;5019592;28;20052;-81
2020/12/27 06:03:20;;;;;;;3.67;1.58;;;5.70;91.20;;;;;;5021265;28;20033;-81
2020/12/27 06:06:08;;;;;;;5.50;1.30;;;5.70;91.10;;;;;;5020446;28;20042;-81
2020/12/27 06:09:04;;;;;;;4.57;1.63;;;5.70;91.50;;;;;;5018525;28;20038;-81
2020/12/27 06:11:53;;;;;;;5.28;1.65;;;5.60;91.30;;;;;;5021753;28;20164;-81
2020/12/27 06:14:37;;;;;;;2.60;1.25;;;5.70;91.20;;;;;;5003938;28;20048;-81
2020/12/27 06:17:15;;;;;;;2.70;0.90;;;5.60;91.20;;;;;;5001862;28;20045;-81
2020/12/27 06:20:07;;;;;;;4.35;1.08;;;5.60;91.00;;;;;;5002981;28;20054;-81
2020/12/27 06:22:44;;;;;;;2.42;0.90;;;5.50;91.20;;;;;;5023230;28;20053;-81
2020/12/27 06:25:25;;;;;;;2.58;0.80;;;5.40;91.60;;;;;;5024217;28;20052;-81
2020/12/27 06:27:55;;;;;;;3.28;0.80;;;5.40;91.70;;;;;;5005761;28;20049;-81
2020/12/27 06:30:44;;;;;;;1.70;0.75;;;5.40;92.10;;;;;;5022882;28;20040;-81
2020/12/27 06:33:26;;;;;;;2.53;1.25;;;5.60;92.10;;;;;;5005119;28;20572;-81
2020/12/27 06:35:59;;;;;;;2.97;0.98;;;5.50;91.10;;;;;;5005930;28;20049;-81
2020/12/27 06:38:40;;;;;;;2.75;0.88;;;5.50;92.00;;;;;;5017629;28;20851;-80
2020/12/27 06:41:17;;;;;;;3.72;1.17;;;5.50;91.90;;;;;;5003792;28;20034;-81
2020/12/27 06:43:54;;;;;;;4.25;0.95;;;5.40;92.50;;;;;;5020971;28;20089;-81
2020/12/27 06:46:31;;;;;;;2.65;1.02;;;5.30;92.70;;;;;;5011026;28;20050;-81
2020/12/27 06:49:10;;;;;;;2.22;1.20;;;5.30;92.80;;;;;;4984339;28;20046;-81
2020/12/27 06:51:47;;;;;;;3.53;1.10;;;5.30;93.10;;;;;;5011277;28;20547;-81
2020/12/27 06:54:42;;;;;;;2.28;0.90;;;5.20;93.30;;;;;;5001786;28;20092;-81
2020/12/27 06:57:39;;;;;;;2.47;1.13;;;5.20;93.70;;;;;;4981738;28;20046;-81
2020/12/27 07:00:19;;;;;;;2.97;1.05;;;5.20;92.80;;;;;;4987518;28;20037;-81
2020/12/27 07:03:06;;;;;;;3.20;1.10;;;5.30;92.60;;;;;;5003371;28;20056;-80
2020/12/27 07:05:36;;;;;;;4.15;1.10;;;5.50;93.50;;;;;;4998220;28;20046;-81
2020/12/27 07:08:05;;;;;;;3.10;1.33;;;5.50;93.70;;;;;;5018882;28;20394;-81
2020/12/27 07:10:35;;;;;;;2.88;1.08;;;5.40;94.00;;;;;;5012251;28;20133;-81
2020/12/27 07:13:07;;;;;;;3.28;1.38;;;5.40;94.80;;;;;;4989737;28;20046;-81
2020/12/27 07:15:35;;;;;;;4.00;1.52;;;5.50;94.10;;;;;;5017182;28;20053;-82
2020/12/27 07:18:07;;;;;;;2.88;1.50;;;5.60;94.20;;;;;;5001760;28;20034;-81
2020/12/27 07:20:38;;;;;;;11.32;2.78;;;5.60;94.10;;;;;;5018118;28;20040;-81
2020/12/27 07:23:17;;;;;;;3.60;1.73;;;5.50;93.60;;;;;;5005603;28;20034;-81
2020/12/27 07:25:44;;;;;;;3.63;1.48;;;5.50;93.30;;;;;;4985990;28;20144;-81
2020/12/27 07:28:13;;;;;;;3.90;2.05;;;5.60;93.40;;;;;;5018715;28;20050;-81
2020/12/27 07:30:40;;;;;;;3.90;1.58;;;5.50;92.90;;;;;;5002768;28;20049;-81
2020/12/27 07:33:12;;;;;;;4.53;1.80;;;5.60;92.90;;;;;;5003836;28;20061;-81
2020/12/27 07:35:40;;;;;;;5.25;2.25;;;5.60;93.30;;;;;;5005766;28;20148;-81
2020/12/27 07:38:08;;;;;;;5.55;2.30;;;5.50;93.10;;;;;;4991529;28;20044;-81
2020/12/27 07:40:37;;;;;;;5.15;2.22;;;5.60;93.50;;;;;;5021766;28;20043;-81
2020/12/27 07:43:09;;;;;;;5.05;2.20;;;5.70;93.60;;;;;;5004732;28;20550;-81
2020/12/27 07:45:44;;;;;;;4.10;2.20;;;5.50;93.80;;;;;;5001268;28;20049;-81
2020/12/27 07:48:11;;;;;;;4.82;2.30;;;5.40;94.50;;;;;;5004866;28;20037;-81
2020/12/27 07:50:38;;;;;;;4.43;2.33;;;5.50;95.10;;;;;;5016547;28;20125;-81
2020/12/27 07:53:05;;;;;;;5.35;2.55;;;5.60;95.30;;;;;;5023639;28;20482;-81
2020/12/27 07:55:34;;;;;;;6.15;3.03;;;5.70;95.20;;;;;;5002379;28;20470;-81
2020/12/27 07:58:05;;;;;;;6.07;3.30;;;5.80;95.20;;;;;;5024462;28;20048;-81
2020/12/27 08:00:34;;;;;;;6.55;3.53;;;5.80;94.50;;;;;;5005407;28;20092;-81
2020/12/27 08:03:04;;;;;;;5.20;2.88;;;5.80;94.20;;;;;;4996139;28;20045;-81
2020/12/27 08:05:32;;;;;;;3.72;2.90;;;5.70;94.40;;;;;;5003071;28;20053;-81
2020/12/27 08:08:04;;;;;;;6.10;2.90;;;5.70;94.50;;;;;;4992288;28;20068;-81
2020/12/27 08:10:31;;;;;;;4.65;2.78;;;5.80;94.50;;;;;;5019873;28;20352;-82
2020/12/27 08:13:00;;;;;;;5.05;2.55;;;5.80;93.70;;;;;;5018615;28;20038;-86
2020/12/27 08:15:31;;;;;;;4.70;2.30;;;5.70;93.90;;;;;;5021450;28;20041;-80
2020/12/27 08:18:00;;;;;;;4.72;2.60;;;5.70;93.30;;;;;;5022264;28;20124;-85
2020/12/27 08:20:30;;;;;;;7.45;2.50;;;5.90;93.10;;;;;;5005514;28;20045;-79
2020/12/27 08:23:01;;;;;;;9.43;5.72;;;6.00;92.80;;;;;;5020474;28;20046;-82
2020/12/27 08:25:29;;;;;;;7.88;4.63;;;6.10;92.70;;;;;;4995853;28;20161;-83
2020/12/27 08:27:58;;;;;;;4.72;2.50;;;6.20;92.60;;;;;;5006986;28;20048;-83
2020/12/27 08:30:27;;;;;;;5.47;2.95;;;6.30;92.10;;;;;;5005128;28;20048;-81
2020/12/27 08:33:04;;;;;;;4.13;2.60;;;6.40;91.40;;;;;;5005858;28;20046;-82
2020/12/27 08:35:32;;;;;;;4.32;2.63;;;6.50;91.10;;;;;;4987351;28;20475;-83
2020/12/27 08:38:19;;;;;;;4.22;1.80;;;6.50;90.80;;;;;;4999482;28;20560;-84
2020/12/27 08:40:54;;;;;;;2.55;1.70;;;6.50;90.00;;;;;;4968420;28;20132;-86
2020/12/27 08:43:30;;;;;;;3.67;1.50;;;6.60;88.20;;;;;;4982883;28;20105;-84
2020/12/27 08:45:59;;;;;;;3.83;1.73;;;6.70;88.40;;;;;;5002879;28;20049;-84
2020/12/27 08:48:33;;;;;;;4.85;2.17;;;6.70;88.00;;;;;;4988476;28;20048;-84
2020/12/27 08:51:03;;;;;;;3.60;1.65;;;6.80;87.40;;;;;;4988958;28;20054;-85
2020/12/27 08:53:39;;;;;;;4.50;1.73;;;6.90;87.50;;;;;;4997003;28;20101;-84
2020/12/27 08:56:09;;;;;;;3.47;1.87;;;6.90;87.10;;;;;;4989753;28;20141;-85
2020/12/27 08:58:36;;;;;;;4.00;2.10;;;7.00;87.00;;;;;;4990169;28;20427;-85
2020/12/27 09:01:21;;;;;;;5.00;2.47;;;7.00;87.10;;;;;;4988047;28;20414;-85
2020/12/27 09:03:49;;;;;;;7.40;2.63;;;7.10;86.60;;;;;;4988663;28;20073;-84
2020/12/27 09:06:17;;;;;;;4.25;2.63;;;7.00;86.90;;;;;;4986102;28;20034;-86
2020/12/27 09:08:44;;;;;;;4.63;2.20;;;7.00;86.60;;;;;;4985957;28;20063;-86
2020/12/27 09:11:12;;;;;;;3.72;2.42;;;7.20;86.80;;;;;;4998709;28;20144;-86
2020/12/27 09:13:40;;;;;;;3.67;2.83;;;7.20;86.40;;;;;;4998245;28;20514;-89
2020/12/27 09:16:14;;;;;;;5.00;2.83;;;7.30;86.10;;;;;;4999562;28;20058;-84
2020/12/27 09:18:44;;;;;;;3.20;1.75;;;7.40;85.50;;;;;;5003534;28;20049;-85
2020/12/27 09:21:13;;;;;;;4.60;1.95;;;7.60;87.20;;;;;;4984211;28;20049;-87
2020/12/27 09:23:41;;;;;;;3.30;2.20;;;7.60;87.80;;;;;;5002236;28;20041;-84
2020/12/27 09:26:10;;;;;;;4.28;2.47;;;7.70;87.10;;;;;;4977216;28;20082;-86
2020/12/27 09:28:40;;;;;;;4.43;2.50;;;7.70;84.90;;;;;;5001188;28;20069;-85
2020/12/27 09:31:09;;;;;;;3.92;1.80;;;7.80;86.10;;;;;;4999900;28;20050;-84
2020/12/27 09:33:43;;;;;;;6.70;2.42;;;7.90;85.90;;;;;;5003653;28;20045;-82
2020/12/27 09:36:12;;;;;;;3.78;2.15;;;8.00;85.30;;;;;;5005250;28;20479;-82
2020/12/27 09:38:41;;;;;;;3.13;1.88;;;8.00;85.20;;;;;;5003868;28;20392;-86
2020/12/27 09:41:09;;;;;;;3.50;1.85;;;8.10;84.90;;;;;;5004980;28;20073;-84
2020/12/27 09:43:53;;;;;;;4.88;1.70;;;8.20;84.80;;;;;;4988763;28;20435;-81
2020/12/27 09:46:37;;;;;;;3.30;1.40;;;8.20;83.60;;;;;;5003723;28;20049;-81
2020/12/27 09:49:16;;;;;;;5.68;1.48;;;8.30;82.80;;;;;;5003127;28;20053;-83
2020/12/27 09:51:44;;;;;;;4.63;1.77;;;8.40;83.30;;;;;;5006105;28;20053;-83
2020/12/27 09:54:12;;;;;;;2.63;1.42;;;8.40;82.00;;;;;;5010535;28;20510;-85
2020/12/27 09:56:41;;;;;;;2.55;1.13;;;8.50;82.90;;;;;;5019144;28;20073;-82
2020/12/27 09:59:09;;;;;;;3.58;1.45;;;8.60;82.30;;;;;;5003648;28;20068;-81
2020/12/27 10:01:37;;;;;;;4.68;1.38;;;8.70;82.00;;;;;;5002523;28;20041;-80
2020/12/27 10:04:04;;;;;;;5.43;1.58;;;8.90;83.90;;;;;;5021128;28;20087;-83
2020/12/27 10:06:32;;;;;;;4.55;1.25;;;9.00;84.10;;;;;;5019985;28;20084;-86
2020/12/27 10:08:59;;;;;;;3.30;1.33;;;9.10;82.50;;;;;;4988013;28;20096;-83
2020/12/27 10:11:27;;;;;;;3.17;1.58;;;9.00;81.30;;;;;;4986614;28;20049;-83
2020/12/27 10:13:54;;;;;;;6.10;1.60;;;9.10;81.40;;;;;;5019016;28;20406;-82
2020/12/27 10:16:22;;;;;;;2.83;1.70;;;9.20;80.30;;;;;;5012786;28;20045;-84
2020/12/27 10:18:49;;;;;;;4.45;2.30;;;9.30;79.60;;;;;;5001000;28;20041;-90
2020/12/27 10:21:17;;;;;;;5.55;2.58;;;9.30;80.10;;;;;;5016619;28;20065;-86
2020/12/27 10:23:45;;;;;;;4.57;1.45;;;9.40;78.70;;;;;;5002162;28;20041;-86
2020/12/27 10:26:13;;;;;;;3.28;1.10;;;9.50;79.30;;;;;;5018259;28;20048;-84
2020/12/27 10:28:40;;;;;;;1.83;1.15;;;9.50;75.90;;;;;;5001731;28;20044;-83
2020/12/27 10:31:09;;;;;;;2.78;1.40;;;9.50;77.20;;;;;;5020089;28;20048;-84
2020/12/27 10:33:37;;;;;;;1.50;0.90;;;9.50;76.60;;;;;;5015308;28;20095;-85
2020/12/27 10:36:04;;;;;;;2.00;1.08;;;9.60;77.20;;;;;;5036265;28;20056;-84
2020/12/27 10:38:32;;;;;;;2.05;1.23;;;9.70;76.40;;;;;;5020821;28;20306;-85
2020/12/27 10:41:15;;;;;;;2.42;1.50;;;9.70;75.00;;;;;;5011501;28;20053;-85
2020/12/27 10:43:49;;;;;;;2.90;1.40;;;9.70;76.30;;;;;;5019053;28;20265;-81
2020/12/27 10:46:18;;;;;;;3.88;1.10;;;9.80;75.10;;;;;;5003018;28;20050;-83
2020/12/27 10:48:47;;;;;;;3.92;1.42;;;9.90;75.30;;;;;;4997289;28;20041;-81
2020/12/27 10:51:15;;;;;;;2.83;1.40;;;9.90;76.00;;;;;;5004858;28;20246;-82
2020/12/27 10:53:43;;;;;;;6.75;3.45;;;9.90;73.90;;;;;;5014940;28;20293;-81
2020/12/27 10:56:11;;;;;;;2.60;1.20;;;9.90;74.10;;;;;;5033912;28;20041;-84
2020/12/27 10:58:39;;;;;;;3.58;1.00;;;9.90;74.70;;;;;;4995532;28;20045;-80
2020/12/27 11:01:07;;;;;;;2.33;1.08;;;9.90;73.10;;;;;;4996480;28;20042;-85
2020/12/27 11:03:34;;;;;;;2.17;1.15;;;9.90;72.00;;;;;;5016638;28;20048;-79
2020/12/27 11:06:02;;;;;;;3.33;1.58;;;9.80;73.90;;;;;;5016552;28;20103;-81
2020/12/27 11:08:30;;;;;;;4.65;1.88;;;10.00;74.40;;;;;;5005248;28;20040;-80
2020/12/27 11:10:58;;;;;;;2.28;1.50;;;10.20;74.00;;;;;;5030813;28;20138;-79
2020/12/27 11:13:25;;;;;;;2.97;1.52;;;10.20;74.60;;;;;;5016457;28;20085;-79
2020/12/27 11:15:53;;;;;;;2.10;1.20;;;10.40;74.20;;;;;;5032599;28;20044;-81
2020/12/27 11:18:21;;;;;;;1.42;1.00;;;10.50;73.80;;;;;;5033168;28;20052;-80
2020/12/27 11:20:48;;;;;;;3.25;1.40;;;10.50;72.40;;;;;;5007508;28;20992;-79
2020/12/27 11:23:15;;;;;;;3.78;1.30;;;10.70;71.70;;;;;;5019884;28;20116;-82
2020/12/27 11:25:47;;;;;;;2.50;1.23;;;10.70;71.50;;;;;;5019129;28;20053;-79
2020/12/27 11:28:14;;;;;;;2.08;1.10;;;10.90;72.10;;;;;;5020489;28;20121;-76
2020/12/27 11:30:41;;;;;;;2.88;1.90;;;10.90;70.60;;;;;;5034386;28;20046;-82
2020/12/27 11:33:10;;;;;;;3.15;2.03;;;10.80;70.50;;;;;;5005784;28;20099;-83
2020/12/27 11:35:48;;;;;;;9.73;5.93;;;10.80;68.80;;;;;;5031054;28;20124;-78
2020/12/27 11:38:15;;;;;;;3.88;2.40;;;10.90;68.80;;;;;;5017448;28;20038;-81
2020/12/27 11:40:43;;;;;;;3.20;2.20;;;10.90;68.10;;;;;;5023208;28;20041;-84
2020/12/27 11:43:11;;;;;;;2.17;1.52;;;11.00;69.00;;;;;;5023401;28;20088;-90
2020/12/27 11:45:38;;;;;;;4.95;1.27;;;11.20;68.20;;;;;;5022813;28;20491;-86
2020/12/27 11:48:06;;;;;;;8.25;1.70;;;11.20;68.80;;;;;;5018735;28;20045;-86
2020/12/27 11:50:34;;;;;;;3.85;1.52;;;11.30;69.40;;;;;;5024184;28;20635;-84
2020/12/27 11:53:01;;;;;;;6.32;1.52;;;11.50;70.30;;;;;;5020993;28;20459;-80
2020/12/27 11:55:38;;;;;;;2.13;1.08;;;11.60;69.70;;;;;;5019598;28;20340;-80
2020/12/27 11:58:06;;;;;;;2.70;1.65;;;11.50;68.70;;;;;;5021436;28;20045;-80
2020/12/27 12:00:34;;;;;;;2.80;1.33;;;11.50;68.50;;;;;;5015127;28;20046;-79
2020/12/27 12:03:02;;;;;;;2.15;0.77;;;11.60;67.90;;;;;;5016681;28;20053;-77
2020/12/27 12:05:29;;;;;;;1.92;0.90;;;11.50;65.50;;;;;;5019168;28;20045;-83
2020/12/27 12:07:57;;;;;;;1.75;0.90;;;11.60;68.60;;;;;;5034771;28;20040;-77
2020/12/27 12:10:25;;;;;;;2.67;1.40;;;11.70;69.10;;;;;;5015422;28;20641;-86
2020/12/27 12:12:52;;;;;;;3.05;1.23;;;11.80;67.80;;;;;;5017023;28;20099;-78
2020/12/27 12:15:20;;;;;;;1.70;0.90;;;11.80;64.70;;;;;;5019207;28;20038;-80
2020/12/27 12:17:47;;;;;;;3.22;1.40;;;11.90;66.00;;;;;;5017952;28;20364;-79
2020/12/27 12:22:52;;;;;;;3.92;1.65;;;11.90;66.80;;;;;;5021222;28;20514;-81
2020/12/27 12:25:20;;;;;;;2.60;1.83;;;11.90;68.00;;;;;;5018995;28;20138;-80
2020/12/27 12:27:48;;;;;;;3.15;1.70;;;12.20;68.90;;;;;;4992459;28;20774;-84
2020/12/27 12:30:15;;;;;;;2.55;1.33;;;12.10;67.20;;;;;;5010209;28;20065;-85
2020/12/27 12:32:42;;;;;;;1.95;1.35;;;12.00;67.70;;;;;;5017750;28;20140;-82
2020/12/27 12:35:10;;;;;;;2.30;1.30;;;12.10;68.20;;;;;;5006977;28;20418;-85
2020/12/27 12:37:38;;;;;;;2.70;1.00;;;12.20;67.20;;;;;;5004206;28;20411;-81
2020/12/27 12:40:06;;;;;;;3.65;1.20;;;12.30;68.00;;;;;;4990854;28;20037;-80
2020/12/27 12:42:36;;;;;;;2.35;1.08;;;12.30;67.90;;;;;;5003741;28;20447;-78
2020/12/27 12:45:05;;;;;;;2.03;1.30;;;12.40;68.70;;;;;;5001101;28;20048;-79
2020/12/27 12:47:33;;;;;;;3.42;1.27;;;12.60;69.40;;;;;;5001577;28;20038;-79
2020/12/27 12:50:00;;;;;;;2.80;1.30;;;12.80;68.90;;;;;;4987218;28;20076;-79
2020/12/27 12:52:27;;;;;;;1.58;0.90;;;12.60;68.50;;;;;;5017529;28;20508;-79
2020/12/27 12:54:55;;;;;;;2.17;1.10;;;12.70;69.40;;;;;;4996806;28;20123;-79
2020/12/27 12:57:22;;;;;;;2.60;1.10;;;12.80;67.50;;;;;;5017068;28;20141;-77
2020/12/27 12:59:50;;;;;;;2.47;1.08;;;12.80;68.30;;;;;;5018705;28;20542;-80
2020/12/27 13:02:20;;;;;;;2.30;1.23;;;12.70;67.60;;;;;;5003359;28;20045;-76
2020/12/27 13:04:47;;;;;;;2.80;1.50;;;12.90;69.00;;;;;;5000785;28;20136;-77
2020/12/27 13:07:16;;;;;;;1.80;1.25;;;12.90;68.80;;;;;;5018859;28;20057;-78
2020/12/27 13:09:44;;;;;;;3.35;1.40;;;12.80;68.20;;;;;;5007992;28;20041;-80
2020/12/27 13:12:29;;;;;;;2.78;1.35;;;12.70;66.80;;;;;;5004313;28;20056;-80
2020/12/27 13:14:57;;;;;;;2.85;2.05;;;12.70;66.80;;;;;;5020034;28;20037;-80
2020/12/27 13:17:25;;;;;;;2.95;2.05;;;12.80;68.60;;;;;;5012819;28;20495;-79
2020/12/27 13:19:52;;;;;;;3.50;1.80;;;12.60;68.60;;;;;;5000144;28;20053;-77
2020/12/27 13:22:19;;;;;;;2.20;1.65;;;12.40;69.10;;;;;;4984842;28;20045;-77
2020/12/27 13:24:47;;;;;;;3.45;1.70;;;12.40;69.80;;;;;;5017220;28;20041;-76